DLH47T EDDM-LPPT
Flight info
| Callsign | DLH47T |
|---|---|
| Flight time | N/A |
| Altitude | 24000 |
| Route | MERSI4E/08R MERSI Y100 UMTEX/N0359F230 Y100 TRA/N0445F370 DCT LUTIX DCT BENOT DCT NEMOS DCT NINTU DCT MEBAK DCT REPSI DCT LERGA DCT MINSO DCT NARAK DCT AGN DCT LATEK/N0447F390 DCT PPN DCT MIRPO DCT DGO DCT NEA DCT ARDID DCT INBOM |
| Aircraft | A320/M-SDE2E3FGIJ1LORWXYZ/HB1 |
Departure
| Time | 2026-05-06 13:18 |
|---|---|
| Airport | Munich Airport (EDDM) |
Arrival
| Time | N/A |
|---|---|
| Airport | Lisbon Humberto Delgado Airport (LPPT) |
| Time | Latitude | Longitude | Altitude | Speed | Heading |
|---|---|---|---|---|---|
| 2026-05-06 12:30 | 48.35365 | 11.79751 | 1486 ft | 0 kts | 83° |
| 2026-05-06 13:00 | 48.35362 | 11.79718 | 1475 ft | 4 kts | 83° |
| 2026-05-06 13:00 | 48.35359 | 11.79678 | 1475 ft | 3 kts | 83° |
| 2026-05-06 13:00 | 48.35358 | 11.79646 | 1472 ft | 4 kts | 101° |
| 2026-05-06 13:01 | 48.35368 | 11.79612 | 1474 ft | 4 kts | 145° |
| 2026-05-06 13:01 | 48.35391 | 11.79601 | 1478 ft | 4 kts | 173° |
| 2026-05-06 13:01 | 48.35402 | 11.79599 | 1477 ft | 0 kts | 173° |
| 2026-05-06 13:06 | 48.35399 | 11.79599 | 1479 ft | 2 kts | 173° |
| 2026-05-06 13:06 | 48.35391 | 11.79600 | 1478 ft | 1 kts | 181° |
| 2026-05-06 13:06 | 48.35386 | 11.79590 | 1481 ft | 4 kts | 223° |
| 2026-05-06 13:06 | 48.35353 | 11.79546 | 1475 ft | 7 kts | 215° |
| 2026-05-06 13:07 | 48.35310 | 11.79547 | 1481 ft | 8 kts | 172° |
| 2026-05-06 13:07 | 48.35261 | 11.79557 | 1485 ft | 6 kts | 173° |
| 2026-05-06 13:07 | 48.35221 | 11.79562 | 1485 ft | 5 kts | 174° |
| 2026-05-06 13:07 | 48.35182 | 11.79569 | 1476 ft | 8 kts | 173° |
| 2026-05-06 13:08 | 48.35130 | 11.79577 | 1482 ft | 7 kts | 173° |
| 2026-05-06 13:08 | 48.35088 | 11.79584 | 1485 ft | 5 kts | 173° |
| 2026-05-06 13:08 | 48.35041 | 11.79592 | 1485 ft | 8 kts | 173° |
| 2026-05-06 13:08 | 48.34992 | 11.79574 | 1478 ft | 10 kts | 209° |
| 2026-05-06 13:09 | 48.34932 | 11.79544 | 1485 ft | 8 kts | 177° |
| 2026-05-06 13:09 | 48.34879 | 11.79553 | 1479 ft | 7 kts | 173° |
| 2026-05-06 13:09 | 48.34835 | 11.79561 | 1485 ft | 6 kts | 173° |
| 2026-05-06 13:09 | 48.34787 | 11.79511 | 1485 ft | 12 kts | 254° |
| 2026-05-06 13:10 | 48.34778 | 11.79384 | 1485 ft | 13 kts | 263° |
| 2026-05-06 13:10 | 48.34768 | 11.79259 | 1479 ft | 12 kts | 263° |
| 2026-05-06 13:10 | 48.34756 | 11.79089 | 1485 ft | 18 kts | 264° |
| 2026-05-06 13:10 | 48.34743 | 11.78906 | 1485 ft | 17 kts | 264° |
| 2026-05-06 13:11 | 48.34728 | 11.78740 | 1485 ft | 15 kts | 262° |
| 2026-05-06 13:11 | 48.34717 | 11.78597 | 1482 ft | 13 kts | 263° |
| 2026-05-06 13:11 | 48.34707 | 11.78458 | 1485 ft | 17 kts | 263° |
| 2026-05-06 13:11 | 48.34691 | 11.78260 | 1485 ft | 19 kts | 263° |
| 2026-05-06 13:12 | 48.34676 | 11.78074 | 1485 ft | 17 kts | 263° |
| 2026-05-06 13:12 | 48.34663 | 11.77907 | 1485 ft | 16 kts | 263° |
| 2026-05-06 13:12 | 48.34648 | 11.77700 | 1485 ft | 22 kts | 264° |
| 2026-05-06 13:12 | 48.34631 | 11.77468 | 1485 ft | 22 kts | 263° |
| 2026-05-06 13:13 | 48.34612 | 11.77231 | 1479 ft | 23 kts | 263° |
| 2026-05-06 13:13 | 48.34593 | 11.76983 | 1475 ft | 25 kts | 263° |
| 2026-05-06 13:13 | 48.34573 | 11.76722 | 1485 ft | 26 kts | 262° |
| 2026-05-06 13:13 | 48.34551 | 11.76448 | 1472 ft | 27 kts | 263° |
| 2026-05-06 13:14 | 48.34530 | 11.76169 | 1485 ft | 23 kts | 263° |
| 2026-05-06 13:14 | 48.34511 | 11.75924 | 1476 ft | 24 kts | 263° |
| 2026-05-06 13:14 | 48.34492 | 11.75665 | 1481 ft | 25 kts | 263° |
| 2026-05-06 13:14 | 48.34472 | 11.75399 | 1485 ft | 22 kts | 262° |
| 2026-05-06 13:15 | 48.34450 | 11.75240 | 1478 ft | 12 kts | 234° |
| 2026-05-06 13:15 | 48.34379 | 11.75222 | 1485 ft | 10 kts | 173° |
| 2026-05-06 13:15 | 48.34315 | 11.75234 | 1477 ft | 8 kts | 173° |
| 2026-05-06 13:15 | 48.34261 | 11.75243 | 1476 ft | 7 kts | 173° |
| 2026-05-06 13:16 | 48.34216 | 11.75252 | 1485 ft | 6 kts | 173° |
| 2026-05-06 13:16 | 48.34174 | 11.75259 | 1485 ft | 6 kts | 173° |
| 2026-05-06 13:16 | 48.34109 | 11.75271 | 1485 ft | 9 kts | 173° |
| 2026-05-06 13:16 | 48.34084 | 11.75311 | 1485 ft | 4 kts | 85° |
| 2026-05-06 13:17 | 48.34085 | 11.75317 | 1485 ft | 0 kts | 80° |
| 2026-05-06 13:17 | 48.34087 | 11.75344 | 1483 ft | 18 kts | 82° |
| 2026-05-06 13:17 | 48.34137 | 11.75946 | 1481 ft | 94 kts | 83° |
| 2026-05-06 13:17 | 48.34242 | 11.77233 | 1490 ft | 151 kts | 81° |
| 2026-05-06 13:18 | 48.34352 | 11.78838 | 2106 ft | 152 kts | 83° |
| 2026-05-06 13:18 | 48.34466 | 11.80411 | 2878 ft | 151 kts | 83° |
| 2026-05-06 13:18 | 48.34604 | 11.82061 | 3323 ft | 169 kts | 82° |
| 2026-05-06 13:18 | 48.34753 | 11.83935 | 3607 ft | 192 kts | 83° |
| 2026-05-06 13:19 | 48.34911 | 11.86064 | 3865 ft | 219 kts | 83° |
| 2026-05-06 13:19 | 48.35089 | 11.88449 | 4376 ft | 238 kts | 83° |
| 2026-05-06 13:19 | 48.35273 | 11.90947 | 5199 ft | 242 kts | 84° |
| 2026-05-06 13:19 | 48.35456 | 11.93451 | 6006 ft | 247 kts | 86° |
| 2026-05-06 13:20 | 48.35528 | 11.96070 | 6645 ft | 255 kts | 103° |
| 2026-05-06 13:20 | 48.34734 | 11.98385 | 7411 ft | 249 kts | 139° |
| 2026-05-06 13:20 | 48.33349 | 11.99948 | 8250 ft | 249 kts | 151° |
| 2026-05-06 13:20 | 48.31832 | 12.01243 | 9129 ft | 251 kts | 154° |
| 2026-05-06 13:21 | 48.30253 | 12.02431 | 9859 ft | 255 kts | 165° |
| 2026-05-06 13:21 | 48.28510 | 12.02823 | 10562 ft | 257 kts | 182° |
| 2026-05-06 13:21 | 48.26694 | 12.02620 | 11001 ft | 271 kts | 188° |
| 2026-05-06 13:21 | 48.24787 | 12.02395 | 11715 ft | 277 kts | 186° |
| 2026-05-06 13:22 | 48.22852 | 12.02270 | 12498 ft | 280 kts | 185° |
| 2026-05-06 13:22 | 48.20890 | 12.02183 | 13297 ft | 283 kts | 185° |
| 2026-05-06 13:22 | 48.18918 | 12.02104 | 14015 ft | 285 kts | 185° |
| 2026-05-06 13:22 | 48.16927 | 12.02020 | 14719 ft | 287 kts | 185° |
| 2026-05-06 13:23 | 48.14926 | 12.01924 | 15435 ft | 288 kts | 185° |
| 2026-05-06 13:23 | 48.12913 | 12.01816 | 16152 ft | 290 kts | 185° |
| 2026-05-06 13:23 | 48.10915 | 12.01685 | 16808 ft | 292 kts | 188° |
| 2026-05-06 13:23 | 48.08971 | 12.00881 | 17440 ft | 292 kts | 208° |
| 2026-05-06 13:24 | 48.07349 | 11.99040 | 18117 ft | 296 kts | 227° |
| 2026-05-06 13:24 | 48.06282 | 11.96388 | 18730 ft | 303 kts | 246° |
| 2026-05-06 13:24 | 48.05725 | 11.93317 | 19337 ft | 308 kts | 251° |
| 2026-05-06 13:24 | 48.05206 | 11.90208 | 19943 ft | 309 kts | 251° |
| 2026-05-06 13:25 | 48.04684 | 11.87077 | 20534 ft | 311 kts | 251° |
| 2026-05-06 13:25 | 48.04163 | 11.83955 | 21118 ft | 313 kts | 251° |
| 2026-05-06 13:25 | 48.03631 | 11.80784 | 21698 ft | 315 kts | 251° |
| 2026-05-06 13:25 | 48.03094 | 11.77600 | 22284 ft | 317 kts | 251° |
| 2026-05-06 13:26 | 48.02548 | 11.74391 | 22854 ft | 319 kts | 250° |
| 2026-05-06 13:26 | 48.01999 | 11.71165 | 23396 ft | 321 kts | 251° |
| 2026-05-06 13:26 | 48.01449 | 11.67918 | 23880 ft | 323 kts | 251° |
| 2026-05-06 13:26 | 48.01119 | 11.64563 | 24366 ft | 330 kts | 260° |
| 2026-05-06 13:27 | 48.00968 | 11.61132 | 24862 ft | 331 kts | 260° |
| 2026-05-06 13:27 | 48.00813 | 11.57683 | 25352 ft | 332 kts | 260° |
| 2026-05-06 13:27 | 48.00652 | 11.54234 | 25848 ft | 334 kts | 259° |
| 2026-05-06 13:27 | 48.00488 | 11.50764 | 26337 ft | 336 kts | 259° |
| 2026-05-06 13:28 | 48.00327 | 11.47309 | 26799 ft | 338 kts | 259° |
| 2026-05-06 13:28 | 48.00165 | 11.43793 | 27290 ft | 340 kts | 259° |
| 2026-05-06 13:28 | 47.99999 | 11.40269 | 27775 ft | 341 kts | 259° |
| 2026-05-06 13:28 | 47.99830 | 11.36721 | 28265 ft | 343 kts | 259° |
| 2026-05-06 13:29 | 47.99657 | 11.33159 | 28750 ft | 344 kts | 259° |
| 2026-05-06 13:29 | 47.99483 | 11.29576 | 29219 ft | 346 kts | 259° |
| 2026-05-06 13:29 | 47.99306 | 11.25990 | 29676 ft | 347 kts | 259° |
| 2026-05-06 13:29 | 47.99127 | 11.22381 | 30069 ft | 349 kts | 259° |
| 2026-05-06 13:30 | 47.98946 | 11.18760 | 30440 ft | 351 kts | 259° |
| 2026-05-06 13:30 | 47.98761 | 11.15112 | 30788 ft | 353 kts | 259° |
| 2026-05-06 13:30 | 47.98577 | 11.11506 | 31131 ft | 354 kts | 259° |
| 2026-05-06 13:30 | 47.98391 | 11.07819 | 31506 ft | 357 kts | 259° |
| 2026-05-06 13:31 | 47.98150 | 11.04134 | 31817 ft | 355 kts | 254° |
| 2026-05-06 13:31 | 47.97574 | 11.00548 | 31984 ft | 358 kts | 250° |
| 2026-05-06 13:31 | 47.96922 | 10.96902 | 32138 ft | 365 kts | 250° |
| 2026-05-06 13:31 | 47.96252 | 10.93209 | 32278 ft | 371 kts | 250° |
| 2026-05-06 13:32 | 47.95571 | 10.89457 | 32415 ft | 377 kts | 250° |
| 2026-05-06 13:32 | 47.94879 | 10.85644 | 32551 ft | 383 kts | 250° |
| 2026-05-06 13:32 | 47.94187 | 10.81830 | 32696 ft | 387 kts | 250° |
| 2026-05-06 13:32 | 47.93480 | 10.77939 | 32943 ft | 389 kts | 250° |
| 2026-05-06 13:33 | 47.92775 | 10.74050 | 33254 ft | 388 kts | 250° |
| 2026-05-06 13:33 | 47.92073 | 10.70159 | 33603 ft | 387 kts | 250° |
| 2026-05-06 13:33 | 47.91375 | 10.66294 | 33932 ft | 386 kts | 250° |
| 2026-05-06 13:33 | 47.90674 | 10.62428 | 34213 ft | 386 kts | 250° |
| 2026-05-06 13:34 | 47.89967 | 10.58562 | 34471 ft | 386 kts | 250° |
| 2026-05-06 13:34 | 47.89256 | 10.54698 | 34683 ft | 387 kts | 250° |
| 2026-05-06 13:34 | 47.88544 | 10.50825 | 34878 ft | 388 kts | 250° |
| 2026-05-06 13:34 | 47.87828 | 10.46942 | 35057 ft | 390 kts | 250° |
| 2026-05-06 13:35 | 47.87109 | 10.43047 | 35230 ft | 391 kts | 250° |
| 2026-05-06 13:35 | 47.86385 | 10.39137 | 35410 ft | 392 kts | 250° |
| 2026-05-06 13:35 | 47.85659 | 10.35218 | 35581 ft | 394 kts | 251° |
| 2026-05-06 13:35 | 47.85177 | 10.31223 | 35756 ft | 400 kts | 261° |
| 2026-05-06 13:36 | 47.85004 | 10.27088 | 35805 ft | 399 kts | 262° |
| 2026-05-06 13:36 | 47.84679 | 10.18868 | 35804 ft | 397 kts | 262° |
| 2026-05-06 13:37 | 47.84335 | 10.10636 | 35808 ft | 399 kts | 261° |
| 2026-05-06 13:37 | 47.83978 | 10.02438 | 35805 ft | 400 kts | 261° |
| 2026-05-06 13:38 | 47.83737 | 9.94150 | 35809 ft | 401 kts | 264° |
| 2026-05-06 13:38 | 47.83761 | 9.85827 | 35808 ft | 402 kts | 265° |
| 2026-05-06 13:39 | 47.83812 | 9.77513 | 35812 ft | 402 kts | 265° |
| 2026-05-06 13:39 | 47.83797 | 9.69170 | 35818 ft | 403 kts | 264° |
| 2026-05-06 13:40 | 47.83569 | 9.60844 | 35808 ft | 399 kts | 256° |
| 2026-05-06 13:40 | 47.82597 | 9.52759 | 35800 ft | 399 kts | 256° |
| 2026-05-06 13:41 | 47.81622 | 9.44604 | 35819 ft | 399 kts | 256° |
| 2026-05-06 13:41 | 47.80641 | 9.36488 | 35821 ft | 398 kts | 256° |
| 2026-05-06 13:42 | 47.79651 | 9.28381 | 35847 ft | 398 kts | 255° |
| 2026-05-06 13:42 | 47.78658 | 9.20316 | 35821 ft | 399 kts | 255° |
| 2026-05-06 13:43 | 47.77651 | 9.12186 | 35815 ft | 400 kts | 255° |
| 2026-05-06 13:43 | 47.76639 | 9.04029 | 35816 ft | 401 kts | 255° |
| 2026-05-06 13:44 | 47.75623 | 8.95869 | 35817 ft | 401 kts | 255° |
| 2026-05-06 13:44 | 47.74602 | 8.87771 | 35820 ft | 402 kts | 255° |
| 2026-05-06 13:45 | 47.73565 | 8.79591 | 35845 ft | 402 kts | 255° |
| 2026-05-06 13:45 | 47.72171 | 8.68692 | 35860 ft | 403 kts | 255° |
| 2026-05-06 13:46 | 47.70949 | 8.59173 | 35863 ft | 403 kts | 255° |
| 2026-05-06 13:46 | 47.69894 | 8.50985 | 35867 ft | 404 kts | 255° |
| 2026-05-06 13:47 | 47.68724 | 8.44332 | 35864 ft | 398 kts | 244° |
| 2026-05-06 13:47 | 47.65905 | 8.37367 | 35861 ft | 393 kts | 232° |
| 2026-05-06 13:48 | 47.62703 | 8.30776 | 35850 ft | 394 kts | 232° |
| 2026-05-06 13:48 | 47.59511 | 8.24200 | 35846 ft | 395 kts | 232° |
| 2026-05-06 13:49 | 47.56294 | 8.17573 | 35852 ft | 395 kts | 232° |
| 2026-05-06 13:49 | 47.53062 | 8.10959 | 35851 ft | 396 kts | 232° |
| 2026-05-06 13:50 | 47.49851 | 8.04392 | 35852 ft | 396 kts | 232° |
| 2026-05-06 13:50 | 47.46618 | 7.97785 | 35866 ft | 396 kts | 232° |
| 2026-05-06 13:51 | 47.43377 | 7.91187 | 35872 ft | 396 kts | 232° |
| 2026-05-06 13:51 | 47.40147 | 7.84633 | 35876 ft | 396 kts | 232° |
| 2026-05-06 13:52 | 47.36903 | 7.78059 | 35885 ft | 395 kts | 232° |
| 2026-05-06 13:52 | 47.33657 | 7.71502 | 35883 ft | 395 kts | 231° |
| 2026-05-06 13:53 | 47.30427 | 7.64986 | 35876 ft | 395 kts | 232° |
| 2026-05-06 13:53 | 47.27182 | 7.58447 | 35883 ft | 395 kts | 232° |
| 2026-05-06 13:54 | 47.23933 | 7.51922 | 35885 ft | 395 kts | 231° |
| 2026-05-06 13:54 | 47.20682 | 7.45411 | 35896 ft | 395 kts | 231° |
| 2026-05-06 13:55 | 47.17437 | 7.38928 | 35889 ft | 396 kts | 231° |
| 2026-05-06 13:55 | 47.14105 | 7.32460 | 35885 ft | 396 kts | 230° |
| 2026-05-06 13:56 | 47.10658 | 7.26164 | 35880 ft | 395 kts | 229° |
| 2026-05-06 13:56 | 47.07216 | 7.19928 | 35884 ft | 396 kts | 229° |
| 2026-05-06 13:57 | 47.03756 | 7.13611 | 35881 ft | 396 kts | 230° |
| 2026-05-06 13:57 | 47.00314 | 7.07294 | 35900 ft | 396 kts | 230° |
| 2026-05-06 13:58 | 46.96892 | 7.01023 | 35911 ft | 396 kts | 229° |
| 2026-05-06 13:58 | 46.93430 | 6.94722 | 35931 ft | 397 kts | 229° |
| 2026-05-06 13:59 | 46.89950 | 6.88408 | 35912 ft | 398 kts | 229° |
| 2026-05-06 13:59 | 46.86488 | 6.82141 | 35908 ft | 399 kts | 229° |
| 2026-05-06 14:00 | 46.82993 | 6.75820 | 35903 ft | 399 kts | 229° |
| 2026-05-06 14:00 | 46.79495 | 6.69520 | 35904 ft | 400 kts | 229° |
| 2026-05-06 14:01 | 46.76009 | 6.63253 | 35899 ft | 400 kts | 229° |
| 2026-05-06 14:01 | 46.72508 | 6.56957 | 35908 ft | 399 kts | 229° |
| 2026-05-06 14:02 | 46.68996 | 6.50682 | 35908 ft | 398 kts | 229° |
| 2026-05-06 14:02 | 46.65511 | 6.44457 | 35917 ft | 399 kts | 229° |
| 2026-05-06 14:03 | 46.61988 | 6.38174 | 35908 ft | 401 kts | 229° |
| 2026-05-06 14:03 | 46.58447 | 6.31877 | 35905 ft | 402 kts | 229° |
| 2026-05-06 14:04 | 46.54899 | 6.25578 | 35912 ft | 402 kts | 229° |
| 2026-05-06 14:04 | 46.51343 | 6.19293 | 35915 ft | 403 kts | 229° |
| 2026-05-06 14:05 | 46.47810 | 6.13048 | 35919 ft | 403 kts | 229° |
| 2026-05-06 14:05 | 46.44245 | 6.06767 | 35923 ft | 403 kts | 229° |
| 2026-05-06 14:06 | 46.40682 | 6.00506 | 35925 ft | 403 kts | 229° |
| 2026-05-06 14:06 | 46.37097 | 5.94225 | 35928 ft | 404 kts | 229° |
| 2026-05-06 14:07 | 46.33502 | 5.87939 | 35925 ft | 405 kts | 229° |
| 2026-05-06 14:07 | 46.29925 | 5.81682 | 35929 ft | 406 kts | 229° |
| 2026-05-06 14:08 | 46.26317 | 5.75404 | 35926 ft | 406 kts | 229° |
| 2026-05-06 14:08 | 46.22700 | 5.69120 | 35923 ft | 406 kts | 229° |
| 2026-05-06 14:09 | 46.19092 | 5.62854 | 35925 ft | 405 kts | 229° |
| 2026-05-06 14:09 | 46.15498 | 5.56635 | 35933 ft | 405 kts | 229° |
| 2026-05-06 14:10 | 46.12201 | 5.50007 | 35922 ft | 407 kts | 234° |
| 2026-05-06 14:10 | 46.08976 | 5.43293 | 35919 ft | 408 kts | 234° |
| 2026-05-06 14:11 | 46.05760 | 5.36610 | 35918 ft | 408 kts | 234° |
| 2026-05-06 14:11 | 46.02516 | 5.29871 | 35920 ft | 408 kts | 234° |
| 2026-05-06 14:12 | 45.99275 | 5.23158 | 35933 ft | 408 kts | 234° |
| 2026-05-06 14:12 | 45.96033 | 5.16470 | 35934 ft | 408 kts | 234° |
| 2026-05-06 14:13 | 45.92781 | 5.09779 | 35944 ft | 408 kts | 234° |
| 2026-05-06 14:13 | 45.89543 | 5.03130 | 35937 ft | 409 kts | 234° |
| 2026-05-06 14:14 | 45.86274 | 4.96428 | 35906 ft | 410 kts | 234° |
| 2026-05-06 14:14 | 45.82992 | 4.89712 | 35924 ft | 409 kts | 234° |
| 2026-05-06 14:15 | 45.79751 | 4.83082 | 35930 ft | 408 kts | 234° |
| 2026-05-06 14:15 | 45.76489 | 4.76427 | 35925 ft | 407 kts | 234° |
| 2026-05-06 14:16 | 45.73224 | 4.69787 | 35940 ft | 407 kts | 234° |
| 2026-05-06 14:16 | 45.69967 | 4.63187 | 35929 ft | 407 kts | 234° |
| 2026-05-06 14:17 | 45.66692 | 4.56555 | 35919 ft | 408 kts | 234° |
| 2026-05-06 14:17 | 45.63409 | 4.49930 | 35918 ft | 408 kts | 234° |
| 2026-05-06 14:18 | 45.60135 | 4.43347 | 35916 ft | 408 kts | 234° |
| 2026-05-06 14:18 | 45.56840 | 4.36736 | 35922 ft | 408 kts | 234° |
| 2026-05-06 14:19 | 45.53566 | 4.30180 | 35925 ft | 408 kts | 234° |
| 2026-05-06 14:19 | 45.50267 | 4.23581 | 35926 ft | 408 kts | 234° |
| 2026-05-06 14:20 | 45.46966 | 4.16996 | 35917 ft | 408 kts | 234° |
| 2026-05-06 14:20 | 45.43683 | 4.10456 | 35916 ft | 408 kts | 234° |
| 2026-05-06 14:21 | 45.40373 | 4.03880 | 35914 ft | 409 kts | 234° |
| 2026-05-06 14:21 | 45.37051 | 3.97318 | 35914 ft | 408 kts | 234° |
| 2026-05-06 14:22 | 45.33726 | 3.90758 | 35909 ft | 408 kts | 234° |
| 2026-05-06 14:22 | 45.30403 | 3.84208 | 35921 ft | 408 kts | 234° |
| 2026-05-06 14:23 | 45.27071 | 3.77666 | 35921 ft | 408 kts | 234° |
| 2026-05-06 14:23 | 45.23761 | 3.71114 | 35918 ft | 408 kts | 235° |
| 2026-05-06 14:24 | 45.20539 | 3.64542 | 35921 ft | 408 kts | 235° |
| 2026-05-06 14:24 | 45.17308 | 3.57937 | 35916 ft | 408 kts | 235° |
| 2026-05-06 14:25 | 45.14061 | 3.51340 | 35913 ft | 408 kts | 235° |
| 2026-05-06 14:25 | 45.10798 | 3.44759 | 35913 ft | 407 kts | 235° |
| 2026-05-06 14:26 | 45.07566 | 3.38255 | 35917 ft | 406 kts | 235° |
| 2026-05-06 14:26 | 45.04311 | 3.31715 | 35917 ft | 406 kts | 235° |
| 2026-05-06 14:27 | 45.01055 | 3.25213 | 35908 ft | 405 kts | 234° |
| 2026-05-06 14:27 | 44.97796 | 3.18714 | 35915 ft | 405 kts | 234° |
| 2026-05-06 14:28 | 44.94540 | 3.12216 | 35909 ft | 405 kts | 235° |
| 2026-05-06 14:28 | 44.91284 | 3.05728 | 35923 ft | 404 kts | 235° |
| 2026-05-06 14:29 | 44.88048 | 2.99289 | 35928 ft | 405 kts | 235° |
| 2026-05-06 14:29 | 44.84779 | 2.92804 | 35922 ft | 405 kts | 235° |
| 2026-05-06 14:30 | 44.81629 | 2.86199 | 35916 ft | 405 kts | 237° |
| 2026-05-06 14:30 | 44.78608 | 2.79487 | 35925 ft | 405 kts | 238° |
| 2026-05-06 14:31 | 44.75593 | 2.72823 | 35928 ft | 406 kts | 237° |
| 2026-05-06 14:31 | 44.72519 | 2.66160 | 35943 ft | 405 kts | 237° |
| 2026-05-06 14:32 | 44.69422 | 2.59517 | 35930 ft | 407 kts | 237° |
| 2026-05-06 14:32 | 44.66839 | 2.53984 | 35929 ft | 407 kts | 237° |
| 2026-05-06 14:33 | 44.63227 | 2.46224 | 35940 ft | 408 kts | 237° |
| 2026-05-06 14:33 | 44.60620 | 2.40638 | 35946 ft | 408 kts | 237° |
| 2026-05-06 14:34 | 44.57521 | 2.34013 | 35952 ft | 408 kts | 237° |
| 2026-05-06 14:34 | 44.54401 | 2.27365 | 35957 ft | 407 kts | 237° |
| 2026-05-06 14:35 | 44.51287 | 2.20731 | 35955 ft | 407 kts | 237° |
| 2026-05-06 14:35 | 44.48158 | 2.14101 | 35948 ft | 408 kts | 237° |
| 2026-05-06 14:36 | 44.45039 | 2.07516 | 35937 ft | 408 kts | 237° |
| 2026-05-06 14:36 | 44.41899 | 2.00882 | 35933 ft | 409 kts | 237° |
| 2026-05-06 14:37 | 44.38753 | 1.94245 | 35935 ft | 408 kts | 237° |
| 2026-05-06 14:37 | 44.35614 | 1.87646 | 35955 ft | 408 kts | 237° |
| 2026-05-06 14:38 | 44.32485 | 1.81094 | 35955 ft | 408 kts | 237° |
| 2026-05-06 14:38 | 44.29327 | 1.74482 | 35943 ft | 408 kts | 237° |
| 2026-05-06 14:39 | 44.26239 | 1.67830 | 35938 ft | 408 kts | 238° |
| 2026-05-06 14:39 | 44.23218 | 1.61178 | 35941 ft | 408 kts | 238° |
| 2026-05-06 14:40 | 44.20162 | 1.54483 | 35947 ft | 408 kts | 238° |
| 2026-05-06 14:40 | 44.17086 | 1.47829 | 35954 ft | 408 kts | 238° |
| 2026-05-06 14:41 | 44.14001 | 1.41186 | 35947 ft | 408 kts | 238° |
| 2026-05-06 14:41 | 44.10926 | 1.34552 | 35945 ft | 408 kts | 238° |
| 2026-05-06 14:42 | 44.07866 | 1.27960 | 35939 ft | 408 kts | 238° |
| 2026-05-06 14:42 | 44.04785 | 1.21341 | 35938 ft | 407 kts | 238° |
| 2026-05-06 14:43 | 44.01698 | 1.14725 | 35922 ft | 407 kts | 238° |
| 2026-05-06 14:43 | 43.98609 | 1.08122 | 35943 ft | 407 kts | 238° |
| 2026-05-06 14:44 | 43.95520 | 1.01566 | 35948 ft | 407 kts | 238° |
| 2026-05-06 14:45 | 43.90866 | 0.91677 | 35950 ft | 407 kts | 238° |
| 2026-05-06 14:45 | 43.87542 | 0.85317 | 35953 ft | 408 kts | 230° |
| 2026-05-06 14:46 | 43.83761 | 0.79471 | 35959 ft | 410 kts | 230° |
| 2026-05-06 14:46 | 43.79949 | 0.73592 | 35956 ft | 408 kts | 230° |
| 2026-05-06 14:47 | 43.76156 | 0.67741 | 35952 ft | 408 kts | 230° |
| 2026-05-06 14:47 | 43.72385 | 0.61931 | 35957 ft | 408 kts | 230° |
| 2026-05-06 14:48 | 43.68580 | 0.56084 | 35961 ft | 408 kts | 230° |
| 2026-05-06 14:48 | 43.64787 | 0.50246 | 35963 ft | 408 kts | 230° |
| 2026-05-06 14:49 | 43.60973 | 0.44419 | 35970 ft | 408 kts | 230° |
| 2026-05-06 14:49 | 43.57160 | 0.38608 | 35978 ft | 407 kts | 230° |
| 2026-05-06 14:50 | 43.53375 | 0.32845 | 35977 ft | 407 kts | 230° |
| 2026-05-06 14:50 | 43.49565 | 0.27061 | 35981 ft | 407 kts | 230° |
| 2026-05-06 14:51 | 43.45771 | 0.21307 | 35978 ft | 408 kts | 230° |
| 2026-05-06 14:51 | 43.41949 | 0.15512 | 35969 ft | 407 kts | 230° |
| 2026-05-06 14:52 | 43.38141 | 0.09742 | 35990 ft | 406 kts | 230° |
| 2026-05-06 14:52 | 43.34334 | 0.04002 | 36002 ft | 406 kts | 230° |
| 2026-05-06 14:53 | 43.30548 | -0.01688 | 35999 ft | 406 kts | 230° |
| 2026-05-06 14:53 | 43.26731 | -0.07413 | 35994 ft | 406 kts | 230° |
| 2026-05-06 14:54 | 43.22920 | -0.13120 | 35994 ft | 407 kts | 230° |
| 2026-05-06 14:54 | 43.19092 | -0.18848 | 35988 ft | 406 kts | 230° |
| 2026-05-06 14:55 | 43.15275 | -0.24549 | 35998 ft | 405 kts | 230° |
| 2026-05-06 14:55 | 43.11457 | -0.30245 | 36001 ft | 405 kts | 230° |
| 2026-05-06 14:56 | 43.07667 | -0.35893 | 36001 ft | 405 kts | 230° |
| 2026-05-06 14:56 | 43.03846 | -0.41567 | 36005 ft | 405 kts | 230° |
| 2026-05-06 14:57 | 43.00022 | -0.47231 | 35991 ft | 403 kts | 230° |
| 2026-05-06 14:57 | 42.96232 | -0.52823 | 36009 ft | 402 kts | 230° |
| 2026-05-06 14:58 | 42.92430 | -0.58431 | 36011 ft | 401 kts | 230° |
| 2026-05-06 14:58 | 42.88828 | -0.64222 | 36007 ft | 398 kts | 240° |
| 2026-05-06 14:59 | 42.86792 | -0.71152 | 36006 ft | 394 kts | 259° |
| 2026-05-06 14:59 | 42.85836 | -0.78467 | 35999 ft | 395 kts | 260° |
| 2026-05-06 15:00 | 42.84858 | -0.85845 | 35983 ft | 395 kts | 260° |
| 2026-05-06 15:00 | 42.83868 | -0.93249 | 35994 ft | 396 kts | 259° |
| 2026-05-06 15:01 | 42.82882 | -1.00642 | 35993 ft | 397 kts | 260° |
| 2026-05-06 15:01 | 42.81903 | -1.07987 | 35992 ft | 397 kts | 260° |